Time;durP1;ratioP1;P1;durP2;ratioP2;P2;SDS_P1;SDS_P2;PMS_P1;PMS_P2;Temp;Humidity;BMP_temperature;BMP_pressure;BME280_temperature;BME280_humidity;BME280_pressure;Samples;Min_cycle;Max_cycle;Signal;HPM_P1;HPM_P2
2021/11/05 00:04:32;;;;;;;1.10;0.90;;;;;;;10.18;54.03;98603.42;236274;1193;138051;-58
2021/11/05 00:09:36;;;;;;;1.40;0.90;;;;;;;10.14;53.97;98612.89;236714;1193;139417;-58
2021/11/05 00:14:39;;;;;;;1.60;1.00;;;;;;;10.12;53.87;98627.21;236625;1193;138616;-56
2021/11/05 00:19:44;;;;;;;3.80;1.10;;;;;;;10.11;53.81;98648.55;236334;1193;138698;-57
2021/11/05 00:24:47;;;;;;;1.90;1.20;;;;;;;10.02;54.08;98661.43;236644;1194;138945;-57
2021/11/05 00:29:50;;;;;;;3.10;1.20;;;;;;;9.90;54.25;98670.14;235698;1194;138482;-57
2021/11/05 00:34:54;;;;;;;2.50;1.30;;;;;;;9.83;54.30;98683.05;236257;1194;138994;-57
2021/11/05 00:39:57;;;;;;;5.40;1.90;;;;;;;9.75;54.57;98689.76;236702;1193;138150;-59
2021/11/05 00:45:00;;;;;;;4.00;2.00;;;;;;;9.65;54.76;98691.26;236661;1194;139132;-58
2021/11/05 00:50:05;;;;;;;2.50;1.80;;;;;;;9.59;54.76;98690.94;235898;1194;139202;-57
2021/11/05 00:55:09;;;;;;;3.20;2.00;;;;;;;9.55;54.90;98699.86;236639;1194;138316;-57
2021/11/05 01:00:15;;;;;;;4.70;2.20;;;;;;;9.51;55.14;98702.23;236665;1193;138450;-58
2021/11/05 01:05:18;;;;;;;4.80;2.20;;;;;;;9.47;55.17;98699.28;236330;1194;138310;-56
2021/11/05 01:10:21;;;;;;;5.10;2.40;;;;;;;9.43;55.24;98696.20;235857;1194;138156;-59
2021/11/05 01:15:24;;;;;;;3.40;2.20;;;;;;;9.38;55.38;98703.23;236506;1194;138932;-57
2021/11/05 01:20:27;;;;;;;3.60;2.10;;;;;;;9.34;55.27;98706.32;236606;1193;138284;-57
2021/11/05 01:25:30;;;;;;;4.60;2.30;;;;;;;9.30;55.21;98709.04;236589;1193;138138;-59
2021/11/05 01:30:35;;;;;;;3.10;1.80;;;;;;;9.23;55.46;98704.69;236261;1193;138009;-58
2021/11/05 01:35:40;;;;;;;3.10;2.10;;;;;;;9.20;55.65;98710.52;236497;1193;138014;-58
2021/11/05 01:40:44;;;;;;;2.80;1.60;;;;;;;9.17;55.70;98723.30;236618;1193;137903;-59
2021/11/05 01:45:48;;;;;;;4.30;1.80;;;;;;;9.14;55.56;98722.97;236629;1194;138708;-59
2021/11/05 01:50:54;;;;;;;3.20;2.00;;;;;;;9.09;55.63;98726.44;236481;1193;137848;-57
2021/11/05 01:55:57;;;;;;;;;;;;;;;9.04;55.74;98728.86;236463;1195;138391;-58
2021/11/05 02:01:02;;;;;;;5.80;1.90;;;;;;;8.97;55.79;98730.69;236531;1193;124500;-58
2021/11/05 02:06:06;;;;;;;2.70;1.70;;;;;;;8.92;55.69;98723.93;236517;1194;138237;-56
2021/11/05 02:11:15;;;;;;;2.60;1.60;;;;;;;8.84;56.05;98723.58;236357;1194;137621;-57
2021/11/05 02:16:22;;;;;;;3.00;1.90;;;;;;;8.76;56.02;98726.11;235912;1195;138092;-59
2021/11/05 02:21:36;;;;;;;2.50;1.20;;;;;;;8.67;56.08;98731.41;236648;1193;138529;-57
2021/11/05 02:26:42;;;;;;;2.80;1.40;;;;;;;8.62;56.12;98735.96;236637;1193;138406;-57
2021/11/05 02:31:45;;;;;;;1.70;1.20;;;;;;;8.57;56.39;98741.39;236731;1193;139639;-57
2021/11/05 02:36:48;;;;;;;2.40;1.10;;;;;;;8.52;56.22;98744.50;236232;1193;138177;-57
2021/11/05 02:41:53;;;;;;;2.70;1.40;;;;;;;8.49;56.41;98741.71;236464;1193;140653;-59
2021/11/05 02:47:16;;;;;;;1.70;1.10;;;;;;;8.50;56.61;98739.35;236370;1194;137835;-58
2021/11/05 02:52:21;;;;;;;1.40;1.00;;;;;;;8.48;56.48;98734.52;236696;1193;138206;-59
2021/11/05 02:57:24;;;;;;;1.20;0.90;;;;;;;8.44;56.53;98736.36;236662;1193;137817;-58
2021/11/05 03:02:27;;;;;;;1.30;1.10;;;;;;;8.41;56.69;98746.77;236394;1194;137540;-57
2021/11/05 03:07:30;;;;;;;1.60;1.10;;;;;;;8.41;56.68;98758.63;236619;1194;138260;-57
2021/11/05 03:12:34;;;;;;;1.70;1.00;;;;;;;8.42;56.68;98771.84;236626;1193;138620;-57
2021/11/05 03:17:38;;;;;;;1.20;1.00;;;;;;;8.41;56.63;98785.15;236427;1193;137970;-57
2021/11/05 03:22:42;;;;;;;2.60;1.00;;;;;;;8.41;56.78;98800.71;236392;1193;139274;-57
2021/11/05 03:27:45;;;;;;;2.00;1.20;;;;;;;8.36;56.77;98817.21;236678;1194;138361;-56
2021/11/05 03:32:48;;;;;;;2.00;1.20;;;;;;;8.34;56.92;98822.81;236646;1193;138497;-57
2021/11/05 03:37:52;;;;;;;2.40;1.20;;;;;;;8.33;56.93;98823.39;236554;1193;141562;-57
2021/11/05 03:42:55;;;;;;;2.00;1.50;;;;;;;8.34;56.97;98835.55;236228;1193;139102;-59
2021/11/05 03:47:59;;;;;;;3.50;1.50;;;;;;;8.35;57.01;98842.72;236489;1193;138067;-59
2021/11/05 03:53:03;;;;;;;2.00;1.50;;;;;;;8.34;56.93;98852.34;236253;1194;137933;-59
2021/11/05 03:58:06;;;;;;;2.20;1.60;;;;;;;8.32;57.04;98869.73;236127;1193;137915;-58
2021/11/05 04:03:09;;;;;;;1.80;1.40;;;;;;;8.32;57.02;98875.21;236579;1193;138026;-58
2021/11/05 04:08:12;;;;;;;4.10;1.50;;;;;;;8.32;57.03;98884.23;236637;1193;138228;-56
2021/11/05 04:13:15;;;;;;;2.10;1.30;;;;;;;8.32;57.06;98884.58;236616;1195;137882;-58
2021/11/05 04:18:19;;;;;;;1.60;1.50;;;;;;;8.33;57.01;98894.43;236279;1195;139548;-57
2021/11/05 04:23:22;;;;;;;1.50;1.20;;;;;;;8.36;56.93;98902.57;235883;1195;138727;-57
2021/11/05 04:28:25;;;;;;;3.10;1.50;;;;;;;8.39;56.98;98907.55;236356;1195;138990;-59
2021/11/05 04:33:31;;;;;;;2.40;1.40;;;;;;;8.44;56.99;98904.27;236615;1195;138618;-55
2021/11/05 04:38:34;;;;;;;1.40;1.10;;;;;;;8.46;56.96;98908.95;236451;1194;138497;-59
2021/11/05 04:43:37;;;;;;;3.10;1.40;;;;;;;8.45;56.90;98899.65;236014;1194;138022;-58
2021/11/05 04:48:40;;;;;;;3.30;1.60;;;;;;;8.43;56.92;98892.86;236546;1193;138245;-59
2021/11/05 04:53:44;;;;;;;5.00;1.50;;;;;;;8.39;56.84;98896.59;236563;1194;137744;-58
2021/11/05 04:58:47;;;;;;;3.10;1.50;;;;;;;8.38;56.75;98893.48;236428;1195;138513;-58
2021/11/05 05:03:50;;;;;;;1.70;1.40;;;;;;;8.34;56.70;98891.54;236374;1193;137624;-58
2021/11/05 05:08:53;;;;;;;2.30;1.40;;;;;;;8.31;56.69;98894.01;236524;1193;138073;-56
2021/11/05 05:13:56;;;;;;;4.60;1.60;;;;;;;8.26;56.68;98893.41;236357;1193;137991;-59
2021/11/05 05:18:59;;;;;;;2.00;1.30;;;;;;;8.25;56.91;98907.77;236332;1193;138112;-59
2021/11/05 05:24:02;;;;;;;4.00;1.30;;;;;;;8.23;56.90;98913.00;236483;1193;138921;-57
2021/11/05 05:29:06;;;;;;;4.20;1.50;;;;;;;8.20;57.01;98916.32;236582;1194;138060;-57
2021/11/05 05:34:09;;;;;;;2.20;1.30;;;;;;;8.20;56.92;98931.20;236601;1193;138553;-58
2021/11/05 05:39:12;;;;;;;3.80;1.40;;;;;;;8.18;56.93;98936.08;236385;1193;138221;-56
2021/11/05 05:44:15;;;;;;;2.00;1.50;;;;;;;8.16;56.85;98938.33;236503;1193;138306;-57
2021/11/05 05:49:18;;;;;;;3.80;1.40;;;;;;;8.15;56.96;98939.05;236436;1193;139492;-56
2021/11/05 05:54:21;;;;;;;2.10;1.50;;;;;;;8.11;56.96;98947.20;236467;1193;138106;-57
2021/11/05 05:59:27;;;;;;;3.50;1.50;;;;;;;8.07;56.91;98955.57;236600;1193;140385;-58
2021/11/05 06:04:30;;;;;;;3.00;1.70;;;;;;;7.97;56.91;98970.41;236692;1193;138296;-58
2021/11/05 06:09:34;;;;;;;3.50;1.90;;;;;;;7.90;57.07;98978.00;236603;1193;138162;-60
2021/11/05 06:14:37;;;;;;;5.00;1.80;;;;;;;7.89;57.14;98973.28;236643;1193;139223;-56
2021/11/05 06:19:40;;;;;;;4.80;2.10;;;;;;;7.89;57.20;98973.69;236408;1193;139523;-59
2021/11/05 06:24:43;;;;;;;7.60;1.90;;;;;;;7.89;57.39;98985.52;236445;1193;139600;-61
2021/11/05 06:29:46;;;;;;;4.50;2.20;;;;;;;7.87;57.28;98985.60;236555;1193;138424;-56
2021/11/05 06:34:50;;;;;;;4.00;2.00;;;;;;;7.91;57.41;98990.15;236285;1195;138537;-60
2021/11/05 06:39:53;;;;;;;5.20;2.00;;;;;;;7.96;57.49;98998.21;236673;1193;137988;-59
2021/11/05 06:44:56;;;;;;;3.70;2.10;;;;;;;7.99;57.44;99013.04;236448;1193;139890;-58
2021/11/05 06:49:59;;;;;;;2.90;1.80;;;;;;;8.02;57.38;99029.52;236541;1194;138974;-58
2021/11/05 06:55:05;;;;;;;5.90;2.10;;;;;;;8.02;57.43;99030.05;236450;1194;138469;-60
2021/11/05 07:00:11;;;;;;;3.60;2.10;;;;;;;8.04;57.63;99043.00;236550;1193;137711;-57
2021/11/05 07:05:15;;;;;;;7.40;2.70;;;;;;;8.11;57.62;99045.66;236595;1187;140518;-60
2021/11/05 07:10:18;;;;;;;3.60;2.40;;;;;;;8.19;57.55;99045.20;236605;1194;138159;-60
2021/11/05 07:15:21;;;;;;;28.50;19.50;;;;;;;8.32;57.65;99033.05;236428;1193;138405;-62
2021/11/05 07:20:24;;;;;;;7.80;4.00;;;;;;;8.54;57.90;99037.56;236202;1193;139487;-60
2021/11/05 07:25:28;;;;;;;6.30;3.00;;;;;;;8.80;57.55;99048.18;236511;1193;138074;-57
2021/11/05 07:30:31;;;;;;;9.70;6.10;;;;;;;8.98;57.40;99052.52;236065;1195;139159;-60
2021/11/05 07:35:35;;;;;;;7.60;3.90;;;;;;;9.25;57.47;99061.61;236477;1193;138750;-61
2021/11/05 07:40:38;;;;;;;3.70;2.30;;;;;;;9.45;56.85;99065.30;236508;1195;137961;-62
2021/11/05 07:45:45;;;;;;;59.60;40.00;;;;;;;9.46;56.37;99079.05;236725;1193;137933;-60
2021/11/05 07:50:49;;;;;;;3.70;2.50;;;;;;;9.48;56.18;99086.71;236444;1195;138381;-58
2021/11/05 07:55:52;;;;;;;5.40;2.20;;;;;;;9.40;55.78;99089.64;236142;1193;137948;-59
2021/11/05 08:00:55;;;;;;;2.70;2.10;;;;;;;9.38;55.71;99094.67;236107;1193;137795;-61
2021/11/05 08:05:59;;;;;;;4.60;2.20;;;;;;;9.39;55.58;99100.83;236541;1193;137887;-61
2021/11/05 08:11:03;;;;;;;2.90;2.00;;;;;;;9.43;55.75;99101.52;236594;1193;140272;-59
2021/11/05 08:16:06;;;;;;;7.50;2.30;;;;;;;9.52;55.85;99106.67;236655;1190;137920;-59
2021/11/05 08:21:09;;;;;;;3.40;2.40;;;;;;;9.63;55.68;99113.51;236102;1193;138271;-59
2021/11/05 08:26:13;;;;;;;78.90;50.40;;;;;;;9.74;55.74;99121.91;236717;1193;139300;-60
2021/11/05 08:31:16;;;;;;;5.00;3.50;;;;;;;9.94;55.49;99126.23;236315;1193;138547;-59
2021/11/05 08:36:23;;;;;;;3.20;2.00;;;;;;;10.07;55.47;99130.27;236295;1195;138199;-60
2021/11/05 08:41:26;;;;;;;5.80;3.00;;;;;;;10.14;55.06;99139.38;236456;1195;138900;-62
2021/11/05 08:46:30;;;;;;;7.10;2.30;;;;;;;10.17;54.98;99142.77;236647;1193;138393;-59
2021/11/05 08:51:42;;;;;;;6.90;4.40;;;;;;;10.26;54.73;99156.62;236506;1193;138452;-62
2021/11/05 08:56:45;;;;;;;5.90;3.90;;;;;;;10.54;55.50;99156.73;236362;1193;138670;-59
2021/11/05 09:01:48;;;;;;;4.60;2.90;;;;;;;10.64;54.64;99173.20;236508;1193;138928;-59
2021/11/05 09:06:51;;;;;;;5.10;2.40;;;;;;;10.51;53.77;99165.64;236462;1194;138216;-59
2021/11/05 09:11:54;;;;;;;3.20;2.50;;;;;;;10.36;53.84;99163.52;236451;1193;140041;-60
2021/11/05 09:16:57;;;;;;;4.10;3.10;;;;;;;10.29;54.00;99172.98;236518;1193;139903;-60
2021/11/05 09:22:00;;;;;;;4.20;2.70;;;;;;;10.35;54.07;99183.05;236790;1193;138768;-59
2021/11/05 09:27:04;;;;;;;4.60;2.70;;;;;;;10.43;54.23;99192.69;236204;1193;138801;-60
2021/11/05 09:32:07;;;;;;;14.80;11.40;;;;;;;10.45;53.85;99189.59;236044;1194;138332;-60
2021/11/05 09:37:10;;;;;;;8.90;3.80;;;;;;;10.52;53.97;99201.40;236302;1194;139062;-60
2021/11/05 09:42:14;;;;;;;3.70;2.70;;;;;;;10.61;53.91;99210.95;236381;1193;138510;-60
2021/11/05 09:47:18;;;;;;;4.10;2.70;;;;;;;10.64;53.48;99196.98;236397;1194;138095;-59
2021/11/05 09:52:21;;;;;;;4.50;2.70;;;;;;;10.65;53.64;99202.41;236456;1193;138412;-60
2021/11/05 09:57:25;;;;;;;8.90;2.90;;;;;;;10.63;53.24;99210.69;236390;1195;138579;-59
2021/11/05 10:02:28;;;;;;;19.40;11.30;;;;;;;10.65;53.54;99204.70;236599;1193;140122;-59
2021/11/05 10:07:44;;;;;;;5.40;3.00;;;;;;;10.76;53.43;99217.94;236495;1192;138783;-59
2021/11/05 10:13:13;;;;;;;2.90;2.30;;;;;;;10.87;53.55;99228.23;236411;1193;139875;-57
2021/11/05 10:18:27;;;;;;;8.30;3.20;;;;;;;10.93;53.33;99238.02;236572;1194;139363;-60
2021/11/05 10:23:30;;;;;;;5.50;3.20;;;;;;;10.89;53.38;99239.11;236418;1193;138605;-58
2021/11/05 10:28:38;;;;;;;8.00;3.30;;;;;;;10.86;52.78;99241.59;236565;1193;137991;-59
2021/11/05 10:33:49;;;;;;;5.00;2.80;;;;;;;10.83;52.90;99244.79;236276;1194;138749;-58
2021/11/05 10:38:59;;;;;;;6.40;2.70;;;;;;;10.84;52.81;99234.98;236450;1194;138753;-59
2021/11/05 10:44:15;;;;;;;7.90;3.30;;;;;;;10.87;52.80;99231.99;236579;1193;140237;-61
2021/11/05 10:49:27;;;;;;;7.00;3.40;;;;;;;10.95;52.94;99248.69;236546;1194;138488;-59
2021/11/05 10:54:58;;;;;;;5.10;3.30;;;;;;;11.06;52.77;99255.67;236455;1194;138431;-59
2021/11/05 11:00:27;;;;;;;7.90;3.50;;;;;;;11.08;52.65;99248.06;236567;1194;139280;-60
2021/11/05 11:05:35;;;;;;;4.10;3.40;;;;;;;11.11;52.79;99249.64;236478;1193;138444;-60
2021/11/05 11:10:39;;;;;;;7.70;2.90;;;;;;;11.11;52.95;99248.26;236702;1193;138522;-59
2021/11/05 11:15:47;;;;;;;4.20;3.30;;;;;;;11.08;52.29;99245.94;236511;1193;138519;-59
2021/11/05 11:20:50;;;;;;;6.00;3.00;;;;;;;11.02;52.58;99249.01;236204;1194;139344;-58
2021/11/05 11:25:53;;;;;;;5.30;3.40;;;;;;;11.00;52.40;99258.53;236353;1194;139275;-59
2021/11/05 11:30:57;;;;;;;4.80;3.50;;;;;;;11.01;52.61;99260.56;236248;1194;138182;-60
2021/11/05 11:36:00;;;;;;;6.10;3.10;;;;;;;11.10;52.22;99254.19;236382;1194;138924;-59
2021/11/05 11:41:07;;;;;;;5.30;3.50;;;;;;;11.18;52.09;99259.19;236481;1194;138877;-60
2021/11/05 11:46:10;;;;;;;6.40;3.60;;;;;;;11.17;52.25;99258.20;236673;1194;138958;-59
2021/11/05 11:51:34;;;;;;;6.80;3.90;;;;;;;11.20;52.41;99263.90;236526;1193;139822;-59
2021/11/05 11:56:40;;;;;;;7.40;3.40;;;;;;;11.33;52.15;99275.15;236616;1194;138045;-60
2021/11/05 12:01:46;;;;;;;7.60;4.10;;;;;;;11.45;52.25;99279.92;236389;1193;140080;-59
2021/11/05 12:06:50;;;;;;;5.20;3.60;;;;;;;11.52;52.21;99290.49;236516;1193;138262;-58
2021/11/05 12:12:31;;;;;;;4.50;3.40;;;;;;;11.57;52.11;99283.09;236621;1193;138221;-59
2021/11/05 12:17:46;;;;;;;4.70;3.40;;;;;;;11.62;51.34;99275.53;236588;1193;139764;-59
2021/11/05 12:23:10;;;;;;;5.80;3.60;;;;;;;11.70;51.28;99270.89;236571;1193;138697;-59
2021/11/05 12:28:17;;;;;;;5.60;3.40;;;;;;;11.78;51.53;99255.09;236330;1194;138416;-59
2021/11/05 12:33:37;;;;;;;10.30;4.00;;;;;;;11.91;51.38;99250.40;236265;1194;139526;-58
2021/11/05 12:39:02;;;;;;;7.80;3.80;;;;;;;12.01;51.18;99252.97;236546;1193;138715;-60
2021/11/05 12:44:11;;;;;;;7.00;3.50;;;;;;;12.00;51.08;99258.19;236322;1193;140598;-59
2021/11/05 12:49:19;;;;;;;5.90;3.90;;;;;;;12.03;51.08;99262.27;236538;1193;138628;-59
2021/11/05 12:54:26;;;;;;;5.60;3.70;;;;;;;12.02;50.75;99266.95;236574;1193;138968;-60
2021/11/05 12:59:30;;;;;;;5.70;3.60;;;;;;;12.02;50.75;99270.16;236623;1193;138602;-59
2021/11/05 13:04:42;;;;;;;5.80;3.60;;;;;;;12.08;50.69;99262.27;236128;1193;138318;-60
2021/11/05 13:09:48;;;;;;;5.30;3.70;;;;;;;12.09;50.36;99262.39;236591;1193;139181;-58
2021/11/05 13:15:03;;;;;;;4.60;3.30;;;;;;;12.12;50.30;99264.90;236635;1193;138797;-60
2021/11/05 13:20:12;;;;;;;6.00;3.80;;;;;;;12.09;50.54;99268.27;236521;1193;138160;-60
2021/11/05 13:25:25;;;;;;;8.30;4.20;;;;;;;12.02;50.50;99272.10;236232;1193;138785;-59
2021/11/05 13:30:33;;;;;;;6.70;3.70;;;;;;;11.96;50.53;99284.21;236483;1194;138387;-60
2021/11/05 13:35:49;;;;;;;4.90;3.10;;;;;;;11.85;50.42;99288.63;236499;1195;140353;-59
2021/11/05 13:40:56;;;;;;;4.90;3.40;;;;;;;11.75;50.54;99294.40;236610;1194;138788;-59
2021/11/05 13:46:06;;;;;;;6.00;3.60;;;;;;;11.71;50.49;99302.67;236400;1193;138781;-60
2021/11/05 13:51:19;;;;;;;7.10;3.30;;;;;;;11.66;50.49;99328.56;236473;1194;139113;-58
2021/11/05 13:56:34;;;;;;;9.70;3.50;;;;;;;11.61;50.47;99345.02;236490;1194;138615;-59
2021/11/05 14:01:39;;;;;;;6.90;4.30;;;;;;;11.60;50.76;99335.33;236337;1195;139134;-59
2021/11/05 14:06:45;;;;;;;5.00;3.40;;;;;;;11.62;50.72;99341.42;236477;1193;139773;-59
2021/11/05 14:11:49;;;;;;;;;;;;;;;11.64;51.03;99345.23;236616;1193;139186;-57
2021/11/05 14:16:58;;;;;;;8.20;4.00;;;;;;;11.56;50.81;99354.42;236457;1192;125122;-59
2021/11/05 14:22:03;;;;;;;5.60;4.00;;;;;;;11.51;50.93;99367.37;236584;1193;138490;-60
2021/11/05 14:27:09;;;;;;;5.90;3.90;;;;;;;11.43;50.96;99370.33;236388;1193;138673;-60
2021/11/05 14:32:13;;;;;;;6.20;4.00;;;;;;;11.32;51.00;99372.37;236252;1193;138239;-59
2021/11/05 14:37:28;;;;;;;10.70;3.90;;;;;;;11.22;51.09;99381.51;236278;1193;139243;-58
2021/11/05 14:42:37;;;;;;;265.40;188.80;;;;;;;11.19;51.29;99392.88;236511;1192;138876;-62
2021/11/05 14:47:42;;;;;;;12.20;8.40;;;;;;;11.18;51.68;99395.27;236511;1193;139337;-59
2021/11/05 14:52:48;;;;;;;10.70;4.80;;;;;;;11.17;51.32;99402.59;236625;1193;138549;-58
2021/11/05 14:57:53;;;;;;;8.10;4.10;;;;;;;11.12;51.46;99410.30;236419;1193;138614;-60
2021/11/05 15:02:56;;;;;;;7.10;3.80;;;;;;;11.07;51.76;99419.66;236374;1193;139390;-60
2021/11/05 15:08:03;;;;;;;10.20;4.10;;;;;;;11.00;51.47;99424.88;235835;1195;138679;-60
2021/11/05 15:13:08;;;;;;;6.40;3.70;;;;;;;10.92;51.64;99429.61;236365;1194;139299;-59
2021/11/05 15:18:17;;;;;;;5.30;3.90;;;;;;;10.83;51.70;99435.05;236286;1193;138768;-59
2021/11/05 15:23:24;;;;;;;6.40;4.20;;;;;;;10.70;51.75;99443.63;236254;1193;138712;-58
2021/11/05 15:28:29;;;;;;;7.50;3.70;;;;;;;10.56;51.76;99453.79;236158;1193;138837;-59
2021/11/05 15:33:33;;;;;;;6.30;4.10;;;;;;;10.48;51.93;99464.03;236391;1193;138897;-60
2021/11/05 15:38:38;;;;;;;5.90;3.90;;;;;;;10.41;52.22;99459.58;236437;1193;138908;-59
2021/11/05 15:43:45;;;;;;;5.80;4.10;;;;;;;10.35;52.57;99460.98;236103;1195;138544;-60
2021/11/05 15:48:49;;;;;;;13.10;7.10;;;;;;;10.30;52.26;99475.13;236113;1193;138862;-60
2021/11/05 15:53:52;;;;;;;6.20;3.90;;;;;;;10.30;52.45;99478.30;236511;1193;138626;-58
2021/11/05 15:58:56;;;;;;;6.90;4.00;;;;;;;10.23;52.40;99476.17;236305;1193;138315;-61
2021/11/05 16:04:00;;;;;;;5.90;4.30;;;;;;;10.14;52.32;99483.16;236566;1193;138709;-59
2021/11/05 16:09:04;;;;;;;7.40;4.00;;;;;;;10.10;52.76;99488.50;236546;1194;139421;-61
2021/11/05 16:14:16;;;;;;;7.40;4.70;;;;;;;10.05;52.76;99493.95;236435;1193;138305;-59
2021/11/05 16:19:19;;;;;;;8.00;4.90;;;;;;;10.00;52.56;99491.20;236531;1193;138327;-58
2021/11/05 16:24:25;;;;;;;6.30;4.40;;;;;;;9.92;52.85;99495.85;236639;1195;138826;-59
2021/11/05 16:29:28;;;;;;;8.50;4.60;;;;;;;9.84;52.86;99500.02;236293;1194;138983;-59
2021/11/05 16:34:33;;;;;;;10.50;5.30;;;;;;;9.80;52.74;99506.42;236117;1193;137958;-62
2021/11/05 16:39:37;;;;;;;8.60;5.80;;;;;;;9.71;52.89;99511.11;236366;1195;138359;-60
2021/11/05 16:44:40;;;;;;;136.90;83.70;;;;;;;9.65;53.32;99513.34;236520;1195;139254;-59
2021/11/05 16:49:45;;;;;;;19.90;9.00;;;;;;;9.69;53.60;99522.40;236457;1193;139319;-59
2021/11/05 16:54:48;;;;;;;11.40;6.90;;;;;;;9.66;53.15;99529.07;236575;1193;139237;-58
2021/11/05 16:59:52;;;;;;;11.50;7.50;;;;;;;9.57;53.55;99533.23;236456;1194;138379;-58
2021/11/05 17:04:55;;;;;;;11.90;7.40;;;;;;;9.54;53.72;99543.68;236397;1193;138423;-59
2021/11/05 17:09:59;;;;;;;12.80;8.10;;;;;;;9.49;53.70;99541.47;236278;1193;138823;-60
2021/11/05 17:15:04;;;;;;;12.30;7.60;;;;;;;9.42;53.62;99549.42;236451;1193;139338;-62
2021/11/05 17:20:10;;;;;;;20.40;9.10;;;;;;;9.37;54.01;99559.03;236269;1193;139473;-59
2021/11/05 17:25:14;;;;;;;15.10;8.40;;;;;;;9.32;54.15;99563.71;236372;1193;138185;-59
2021/11/05 17:30:19;;;;;;;14.70;8.20;;;;;;;9.28;54.00;99563.54;235790;1193;138242;-60
2021/11/05 17:35:24;;;;;;;12.70;8.40;;;;;;;9.23;54.26;99570.33;236506;1193;140756;-58
2021/11/05 17:40:27;;;;;;;14.30;8.90;;;;;;;9.20;54.09;99585.73;236389;1187;138626;-59
2021/11/05 17:45:30;;;;;;;17.20;9.90;;;;;;;9.14;54.52;99595.05;236504;1193;138712;-58
2021/11/05 17:50:35;;;;;;;17.80;9.60;;;;;;;9.10;54.39;99609.37;236293;1193;138732;-58
2021/11/05 17:55:38;;;;;;;18.00;10.20;;;;;;;9.09;54.38;99607.48;236101;1195;138124;-61
2021/11/05 18:00:44;;;;;;;15.60;9.50;;;;;;;9.11;54.81;99616.23;236264;1195;138746;-61
2021/11/05 18:05:50;;;;;;;14.30;9.40;;;;;;;9.13;54.66;99621.98;236394;1193;138668;-60
2021/11/05 18:10:54;;;;;;;16.90;9.30;;;;;;;9.16;54.92;99627.15;236837;1193;139138;-58
2021/11/05 18:15:57;;;;;;;16.60;9.70;;;;;;;9.19;54.87;99635.48;236798;1194;139388;-58
2021/11/05 18:21:00;;;;;;;15.60;9.90;;;;;;;9.22;54.76;99646.89;236839;1192;138287;-58
2021/11/05 18:26:03;;;;;;;16.80;9.80;;;;;;;9.24;55.08;99651.73;236703;1193;138260;-60
2021/11/05 18:31:06;;;;;;;16.00;9.80;;;;;;;9.30;54.76;99652.00;236849;1193;138754;-59
2021/11/05 18:36:09;;;;;;;20.40;11.90;;;;;;;9.38;55.14;99651.63;236464;1193;139351;-59
2021/11/05 18:41:15;;;;;;;20.30;11.50;;;;;;;9.45;55.07;99650.02;235951;1193;138961;-58
2021/11/05 18:46:18;;;;;;;18.40;11.10;;;;;;;9.45;55.07;99653.58;236136;1193;139053;-58
2021/11/05 18:51:21;;;;;;;22.10;11.90;;;;;;;9.43;55.03;99664.48;236225;1193;139051;-59
2021/11/05 18:56:24;;;;;;;20.50;12.00;;;;;;;9.42;55.49;99671.29;236478;1193;139128;-61
2021/11/05 19:01:28;;;;;;;18.20;11.70;;;;;;;9.42;55.35;99678.51;236458;1193;139001;-59
2021/11/05 19:06:30;;;;;;;20.60;12.70;;;;;;;9.43;55.61;99682.92;236465;1195;139076;-58
2021/11/05 19:11:34;;;;;;;22.30;12.60;;;;;;;9.44;55.80;99690.47;236369;1194;138981;-61
2021/11/05 19:16:37;;;;;;;21.00;13.60;;;;;;;9.44;55.82;99699.66;236539;1193;138733;-59
2021/11/05 19:21:41;;;;;;;23.30;14.00;;;;;;;9.46;56.03;99703.50;236115;1193;138747;-58
2021/11/05 19:26:44;;;;;;;108.10;82.90;;;;;;;9.48;56.11;99706.95;236257;1194;139005;-59
2021/11/05 19:31:51;;;;;;;29.80;15.60;;;;;;;9.53;56.39;99717.70;236400;1193;138938;-59
2021/11/05 19:36:58;;;;;;;21.00;13.60;;;;;;;9.56;56.52;99720.76;236648;1193;139357;-59
2021/11/05 19:42:02;;;;;;;23.10;13.40;;;;;;;9.57;56.93;99723.50;236553;1193;138778;-59
2021/11/05 19:47:05;;;;;;;22.30;13.30;;;;;;;9.57;56.55;99731.65;236511;1194;138802;-59
2021/11/05 19:52:08;;;;;;;23.10;13.70;;;;;;;9.57;57.00;99744.04;236269;1193;138573;-61
2021/11/05 19:57:12;;;;;;;174.70;121.80;;;;;;;9.57;57.23;99745.32;236472;1195;138532;-62
2021/11/05 20:02:15;;;;;;;30.60;19.80;;;;;;;9.70;57.67;99752.48;236156;1193;139451;-60
2021/11/05 20:07:25;;;;;;;19.70;12.30;;;;;;;9.75;57.37;99760.05;236036;1180;139010;-60
2021/11/05 20:12:28;;;;;;;14.60;9.80;;;;;;;9.62;57.35;99756.96;236594;1193;139525;-60
2021/11/05 20:17:31;;;;;;;12.40;8.30;;;;;;;9.46;57.37;99761.39;236395;1193;138869;-61
2021/11/05 20:22:38;;;;;;;11.70;7.50;;;;;;;9.38;57.59;99773.64;236488;1193;138565;-61
2021/11/05 20:27:41;;;;;;;12.00;7.00;;;;;;;9.27;57.53;99776.95;236460;1193;138984;-60
2021/11/05 20:32:45;;;;;;;53.10;40.60;;;;;;;9.22;57.85;99783.02;236518;1195;138144;-59
2021/11/05 20:37:48;;;;;;;12.70;7.00;;;;;;;9.31;58.18;99785.81;236587;1193;138387;-60
2021/11/05 20:42:51;;;;;;;9.90;6.30;;;;;;;9.23;57.69;99792.01;236630;1193;138476;-60
2021/11/05 20:47:55;;;;;;;10.60;6.40;;;;;;;9.17;57.96;99797.08;236190;1193;138089;-61
2021/11/05 20:53:07;;;;;;;12.20;6.40;;;;;;;9.11;57.89;99796.43;236442;1193;138797;-60
2021/11/05 20:58:11;;;;;;;10.70;6.00;;;;;;;9.06;57.94;99796.13;235987;1193;138244;-60
2021/11/05 21:03:17;;;;;;;9.90;6.60;;;;;;;9.02;58.20;99808.88;236467;1193;138100;-60
2021/11/05 21:08:20;;;;;;;;;;;;;;;8.95;58.11;99816.80;236291;1193;138969;-60
2021/11/05 21:13:23;;;;;;;12.00;6.50;;;;;;;8.87;58.53;99819.42;236520;1193;125195;-63
2021/11/05 21:18:26;;;;;;;12.40;7.00;;;;;;;8.83;58.56;99831.62;236733;1193;138298;-65
2021/11/05 21:23:33;;;;;;;14.70;8.50;;;;;;;8.81;58.59;99840.58;236396;1193;140735;-62
2021/11/05 21:28:37;;;;;;;15.90;9.90;;;;;;;8.81;58.84;99849.94;236193;1187;139278;-60
2021/11/05 21:33:40;;;;;;;15.20;10.40;;;;;;;8.81;59.06;99852.77;236551;1193;139561;-61
2021/11/05 21:38:43;;;;;;;15.70;10.20;;;;;;;8.78;59.14;99854.13;236616;1193;139918;-61
2021/11/05 21:43:47;;;;;;;16.10;10.80;;;;;;;8.75;59.56;99856.54;236622;1193;139534;-61
2021/11/05 21:48:50;;;;;;;18.20;10.10;;;;;;;8.72;59.64;99858.25;236273;1195;139432;-61
2021/11/05 21:53:53;;;;;;;17.00;10.90;;;;;;;8.71;59.65;99868.90;236163;1195;138628;-59
2021/11/05 21:58:57;;;;;;;18.40;10.70;;;;;;;8.70;59.92;99871.98;236573;1193;138175;-60
2021/11/05 22:04:00;;;;;;;18.70;10.60;;;;;;;8.69;60.00;99872.36;236105;1195;138579;-62
2021/11/05 22:09:03;;;;;;;15.10;9.10;;;;;;;8.67;60.11;99873.30;236087;1195;138699;-64
2021/11/05 22:14:06;;;;;;;17.10;9.60;;;;;;;8.66;60.07;99874.99;236500;1195;139265;-59
2021/11/05 22:19:09;;;;;;;15.90;9.00;;;;;;;8.62;60.07;99878.83;236300;1195;138899;-58
2021/11/05 22:24:13;;;;;;;16.30;8.80;;;;;;;8.59;60.24;99885.33;236140;1195;138948;-59
2021/11/05 22:29:16;;;;;;;15.70;9.20;;;;;;;8.61;60.38;99893.38;236375;1194;139288;-65
2021/11/05 22:34:19;;;;;;;17.40;9.00;;;;;;;8.64;60.40;99901.03;236430;1195;139391;-61
2021/11/05 22:39:22;;;;;;;16.50;9.10;;;;;;;8.69;60.39;99900.33;236510;1193;138527;-62
2021/11/05 22:44:25;;;;;;;16.30;9.00;;;;;;;8.72;60.24;99903.02;235686;1193;139933;-61
2021/11/05 22:49:29;;;;;;;17.80;9.40;;;;;;;8.70;60.29;99903.45;236464;1195;138803;-61
2021/11/05 22:54:33;;;;;;;17.50;9.20;;;;;;;8.70;60.46;99903.63;236581;1195;138731;-62
2021/11/05 22:59:36;;;;;;;19.10;9.50;;;;;;;8.68;60.53;99911.49;236327;1194;138616;-62
2021/11/05 23:04:40;;;;;;;17.50;10.30;;;;;;;8.67;60.62;99911.37;236450;1187;138524;-63
2021/11/05 23:09:44;;;;;;;19.30;10.10;;;;;;;8.68;60.65;99918.05;236291;1194;139121;-60
2021/11/05 23:14:47;;;;;;;17.20;9.70;;;;;;;8.68;60.73;99925.80;236559;1180;138618;-60
2021/11/05 23:19:50;;;;;;;18.00;10.90;;;;;;;8.70;60.69;99936.36;236274;1193;138593;-59
2021/11/05 23:24:53;;;;;;;18.60;10.50;;;;;;;8.75;60.76;99943.25;236431;1193;140066;-61
2021/11/05 23:29:56;;;;;;;22.30;10.90;;;;;;;8.82;60.75;99941.38;236557;1193;139434;-60